Time;durP1;ratioP1;P1;durP2;ratioP2;P2;SDS_P1;SDS_P2;PMS_P1;PMS_P2;Temp;Humidity;BMP_temperature;BMP_pressure;BME280_temperature;BME280_humidity;BME280_pressure;Samples;Min_cycle;Max_cycle;Signal;HPM_P1;HPM_P2
2021/05/10 00:00:56;;;;;;;2.53;2.23;;;;;;;;;;5107617;28;20463;-86
2021/05/10 00:03:23;;;;;;;2.57;2.37;;;17.70;99.90;;;;;;5107118;28;20485;-86
2021/05/10 00:05:49;;;;;;;2.97;2.60;;;;;;;;;;5107740;28;20853;-85
2021/05/10 00:08:16;;;;;;;6.77;2.40;;;;;;;;;;5109209;28;20457;-86
2021/05/10 00:10:42;;;;;;;4.20;2.40;;;17.70;99.90;;;;;;5110596;28;20445;-85
2021/05/10 00:13:12;;;;;;;2.80;1.90;;;17.60;99.90;;;;;;5107275;28;20455;-85
2021/05/10 00:15:38;;;;;;;2.47;2.30;;;;;;;;;;5107862;28;20806;-85
2021/05/10 00:18:05;;;;;;;3.07;2.20;;;17.50;99.90;;;;;;5107163;28;20469;-85
2021/05/10 00:20:33;;;;;;;3.00;2.30;;;17.50;99.90;;;;;;5107483;28;20443;-84
2021/05/10 00:23:00;;;;;;;2.43;2.23;;;17.50;99.90;;;;;;5111879;28;20480;-84
2021/05/10 00:25:26;;;;;;;3.13;2.30;;;;;;;;;;5113291;28;20446;-85
2021/05/10 00:27:53;;;;;;;3.07;2.47;;;;;;;;;;5112994;28;20457;-85
2021/05/10 00:30:23;;;;;;;2.10;2.00;;;17.30;99.90;;;;;;5110120;28;20444;-87
2021/05/10 00:32:50;;;;;;;2.97;2.77;;;;;;;;;;5107905;28;20452;-87
2021/05/10 00:35:16;;;;;;;4.80;3.03;;;;;;;;;;5112546;28;20443;-84
2021/05/10 00:37:43;;;;;;;3.07;2.87;;;;;;;;;;5113800;28;20470;-86
2021/05/10 00:40:11;;;;;;;3.00;2.80;;;17.20;99.90;;;;;;5112983;28;20445;-85
2021/05/10 00:42:38;;;;;;;3.60;3.00;;;;;;;;;;5108676;28;20485;-85
2021/05/10 00:45:06;;;;;;;2.90;2.70;;;17.10;99.90;;;;;;5109466;28;20960;-87
2021/05/10 00:47:33;;;;;;;3.00;2.80;;;17.50;99.90;;;;;;5111769;28;20461;-85
2021/05/10 00:50:00;;;;;;;3.30;2.87;;;16.90;99.90;;;;;;5119082;28;20451;-86
2021/05/10 00:52:26;;;;;;;3.13;2.53;;;;;;;;;;5119140;28;20440;-86
2021/05/10 00:54:53;;;;;;;3.83;2.90;;;17.10;99.90;;;;;;5119433;28;20450;-85
2021/05/10 00:57:20;;;;;;;3.43;3.03;;;17.10;99.90;;;;;;5114821;28;20486;-85
2021/05/10 00:59:49;;;;;;;3.10;2.90;;;17.10;99.90;;;;;;5116696;28;20431;-83
2021/05/10 01:02:16;;;;;;;3.97;2.67;;;17.00;99.90;;;;;;5119964;28;20475;-83
2021/05/10 01:04:44;;;;;;;3.50;2.90;;;16.80;99.90;;;;;;5122275;28;20412;-82
2021/05/10 01:07:11;;;;;;;2.53;2.33;;;;;;;;;;5121984;28;20447;-82
2021/05/10 01:09:37;;;;;;;3.20;3.00;;;17.10;99.90;;;;;;5122035;28;20424;-82
2021/05/10 01:12:04;;;;;;;2.70;2.43;;;16.80;99.90;;;;;;5121945;28;20428;-85
2021/05/10 01:14:30;;;;;;;3.87;2.80;;;;;;;;;;5116291;28;20485;-83
2021/05/10 01:16:57;;;;;;;2.97;2.67;;;16.80;99.90;;;;;;5115863;28;20474;-84
2021/05/10 01:19:23;;;;;;;5.47;2.30;;;;;;;;;;5116748;28;20472;-86
2021/05/10 01:21:51;;;;;;;3.33;2.80;;;16.60;99.90;;;;;;5114903;28;20452;-85
2021/05/10 01:24:18;;;;;;;3.50;3.20;;;16.60;99.90;;;;;;5113872;28;20475;-86
2021/05/10 01:26:45;;;;;;;7.90;2.60;;;;;;;;;;5112966;28;20498;-86
2021/05/10 01:29:11;;;;;;;5.73;2.80;;;;;;;;;;5112806;28;20472;-85
2021/05/10 01:31:38;;;;;;;3.03;2.73;;;;;;;;;;5114434;28;20440;-84
2021/05/10 01:34:05;;;;;;;2.70;2.50;;;;;;;;;;5114650;28;20435;-86
2021/05/10 01:36:32;;;;;;;3.70;2.70;;;;;;;;;;5115504;28;20458;-86
2021/05/10 01:38:58;;;;;;;4.03;2.60;;;;;;;;;;5117212;28;20521;-85
2021/05/10 01:41:25;;;;;;;3.90;2.70;;;16.40;99.90;;;;;;5113800;28;20443;-85
2021/05/10 01:43:52;;;;;;;2.63;2.30;;;;;;;;;;5113384;28;20490;-85
2021/05/10 01:46:18;;;;;;;2.37;2.20;;;;;;;;;;5111598;28;20474;-86
2021/05/10 01:48:45;;;;;;;5.70;2.47;;;;;;;;;;5115076;28;20449;-85
2021/05/10 01:51:11;;;;;;;2.97;2.77;;;;;;;;;;5121070;28;20434;-85
2021/05/10 01:53:38;;;;;;;2.97;2.67;;;;;;;;;;5121287;28;20440;-87
2021/05/10 01:56:04;;;;;;;4.80;2.57;;;16.20;99.90;;;;;;5113662;28;20439;-87
2021/05/10 01:58:31;;;;;;;2.90;2.70;;;16.40;99.90;;;;;;5082678;22;20492;-78
2021/05/10 02:00:57;;;;;;;4.10;2.80;;;16.10;99.90;;;;;;5041489;28;20496;-79
2021/05/10 02:03:23;;;;;;;5.50;2.60;;;16.20;99.90;;;;;;5038638;28;20478;-79
2021/05/10 02:05:51;;;;;;;3.67;2.40;;;16.00;99.90;;;;;;5039581;28;20457;-80
2021/05/10 02:08:18;;;;;;;3.33;2.63;;;16.10;99.90;;;;;;5038154;28;20471;-80
2021/05/10 02:10:46;;;;;;;2.67;2.30;;;16.00;99.90;;;;;;5038048;28;20474;-79
2021/05/10 02:13:14;;;;;;;3.57;2.27;;;16.00;99.90;;;;;;5037682;28;20439;-80
2021/05/10 02:15:42;;;;;;;4.80;2.70;;;15.90;99.90;;;;;;5037109;28;20442;-79
2021/05/10 02:18:09;;;;;;;3.13;2.50;;;15.90;99.90;;;;;;5036958;28;20466;-80
2021/05/10 02:20:36;;;;;;;2.87;2.50;;;15.80;99.90;;;;;;5038119;28;20486;-80
2021/05/10 02:23:05;;;;;;;2.73;2.53;;;15.90;99.90;;;;;;5038029;28;20504;-79
2021/05/10 02:25:33;;;;;;;4.00;2.93;;;15.80;99.90;;;;;;5037274;28;20447;-79
2021/05/10 02:28:00;;;;;;;4.40;2.70;;;15.80;99.90;;;;;;5036495;28;20470;-78
2021/05/10 02:30:28;;;;;;;2.60;2.40;;;15.90;99.90;;;;;;5036745;28;21007;-80
2021/05/10 02:32:57;;;;;;;3.03;2.43;;;15.70;99.90;;;;;;5037229;28;20482;-80
2021/05/10 02:35:23;;;;;;;2.90;2.70;;;15.70;99.90;;;;;;5036475;28;20446;-79
2021/05/10 02:37:50;;;;;;;2.70;2.50;;;15.60;99.90;;;;;;5036477;28;20524;-81
2021/05/10 02:40:17;;;;;;;2.97;2.77;;;15.60;99.90;;;;;;5036738;28;20443;-80
2021/05/10 02:42:44;;;;;;;5.93;3.07;;;15.60;99.90;;;;;;5037438;28;20439;-79
2021/05/10 02:45:11;;;;;;;3.40;2.43;;;15.60;99.90;;;;;;5036961;28;20454;-80
2021/05/10 02:47:38;;;;;;;3.03;2.83;;;15.50;99.90;;;;;;5036133;28;20470;-79
2021/05/10 02:50:08;;;;;;;3.97;3.07;;;15.50;99.90;;;;;;5036492;28;20484;-79
2021/05/10 02:52:34;;;;;;;3.10;2.90;;;15.50;99.90;;;;;;5036376;28;21011;-79
2021/05/10 02:55:00;;;;;;;2.67;2.43;;;15.50;99.90;;;;;;5036631;28;20450;-79
2021/05/10 02:57:26;;;;;;;4.83;2.67;;;15.50;99.90;;;;;;5042228;28;20480;-79
2021/05/10 02:59:52;;;;;;;3.40;2.63;;;15.40;99.90;;;;;;5061141;28;20476;-79
2021/05/10 03:02:20;;;;;;;5.80;2.60;;;15.30;99.90;;;;;;5074173;28;20449;-79
2021/05/10 03:04:46;;;;;;;4.90;2.67;;;15.20;99.90;;;;;;5074195;28;20487;-80
2021/05/10 03:07:13;;;;;;;2.40;2.20;;;15.30;99.90;;;;;;5061613;28;20472;-78
2021/05/10 03:09:39;;;;;;;2.93;2.63;;;15.10;99.90;;;;;;5059686;28;20453;-79
2021/05/10 03:12:07;;;;;;;3.97;2.60;;;15.10;99.90;;;;;;5062193;28;20439;-78
2021/05/10 03:14:33;;;;;;;5.10;3.10;;;15.20;99.90;;;;;;5057877;28;20211;-78
2021/05/10 03:16:59;;;;;;;2.93;2.73;;;15.40;99.90;;;;;;5059193;28;20442;-78
2021/05/10 03:19:25;;;;;;;5.20;2.70;;;15.00;99.90;;;;;;5059795;28;20462;-79
2021/05/10 03:21:51;;;;;;;2.90;2.57;;;15.00;99.90;;;;;;5061959;28;20481;-79
2021/05/10 03:24:18;;;;;;;3.40;3.10;;;15.00;99.90;;;;;;5062456;28;20473;-79
2021/05/10 03:26:44;;;;;;;3.30;2.33;;;15.20;99.90;;;;;;5057953;28;20524;-77
2021/05/10 03:29:10;;;;;;;3.40;3.10;;;14.90;99.90;;;;;;5057241;28;20516;-79
2021/05/10 03:31:37;;;;;;;4.03;3.10;;;15.10;99.90;;;;;;5060155;28;20457;-79
2021/05/10 03:34:04;;;;;;;5.23;3.20;;;15.00;99.90;;;;;;5062276;28;20484;-79
2021/05/10 03:36:31;;;;;;;5.87;3.03;;;15.00;99.90;;;;;;5063012;28;20437;-79
2021/05/10 03:38:57;;;;;;;2.60;2.40;;;15.00;99.90;;;;;;5062693;28;20893;-79
2021/05/10 03:41:24;;;;;;;3.60;2.70;;;15.00;99.90;;;;;;5063705;28;20445;-80
2021/05/10 03:43:50;;;;;;;3.30;3.00;;;15.70;99.90;;;;;;5059498;28;20450;-79
2021/05/10 03:46:16;;;;;;;6.73;3.27;;;14.90;99.90;;;;;;5057734;28;20449;-80
2021/05/10 03:48:42;;;;;;;2.88;2.30;;;14.90;99.90;;;;;;5055702;28;20461;-79
2021/05/10 03:51:09;;;;;;;3.50;3.20;;;15.00;99.90;;;;;;5056304;28;20603;-79
2021/05/10 03:53:35;;;;;;;3.50;2.93;;;14.90;99.90;;;;;;5056007;28;21000;-79
2021/05/10 03:56:01;;;;;;;4.17;2.57;;;15.20;99.90;;;;;;5055161;28;20449;-79
2021/05/10 03:58:28;;;;;;;4.60;2.83;;;14.90;99.90;;;;;;5055225;28;20505;-80
2021/05/10 04:00:54;;;;;;;3.00;2.80;;;15.50;99.90;;;;;;5054668;28;20489;-80
2021/05/10 04:03:22;;;;;;;4.57;2.83;;;14.90;99.90;;;;;;5055280;28;20510;-79
2021/05/10 04:06:11;;;;;;;4.17;3.47;;;14.90;99.90;;;;;;5056210;28;20454;-79
2021/05/10 04:08:49;;;;;;;3.57;2.80;;;14.80;99.90;;;;;;5056073;28;20474;-79
2021/05/10 04:11:31;;;;;;;5.60;2.57;;;15.00;99.90;;;;;;5056670;28;20450;-80
2021/05/10 04:13:59;;;;;;;5.70;2.60;;;14.90;99.90;;;;;;5064785;28;20465;-79
2021/05/10 04:16:26;;;;;;;3.70;2.60;;;15.00;99.90;;;;;;5062554;28;20541;-79
2021/05/10 04:18:52;;;;;;;2.93;2.37;;;15.10;99.90;;;;;;5057277;28;20476;-79
2021/05/10 04:21:18;;;;;;;7.00;2.77;;;15.00;99.90;;;;;;5055774;28;20449;-79
2021/05/10 04:23:44;;;;;;;3.50;2.37;;;15.10;99.90;;;;;;5057158;28;20448;-79
2021/05/10 04:26:10;;;;;;;3.97;2.43;;;14.80;99.90;;;;;;5057112;28;20952;-79
2021/05/10 04:28:36;;;;;;;6.43;2.53;;;15.30;99.90;;;;;;5061640;28;20470;-80
2021/05/10 04:31:03;;;;;;;3.17;2.63;;;15.30;99.90;;;;;;5055487;28;20454;-78
2021/05/10 04:33:31;;;;;;;4.70;2.90;;;15.30;99.90;;;;;;5055770;28;20477;-79
2021/05/10 04:35:58;;;;;;;3.07;2.60;;;15.30;99.90;;;;;;5054911;28;20453;-78
2021/05/10 04:38:24;;;;;;;6.30;3.60;;;15.30;99.90;;;;;;5054728;28;20469;-79
2021/05/10 04:40:51;;;;;;;2.43;2.13;;;15.70;99.90;;;;;;5056000;28;20449;-79
2021/05/10 04:43:17;;;;;;;3.10;2.10;;;15.60;99.90;;;;;;5054818;28;20843;-79
2021/05/10 04:45:43;;;;;;;3.33;2.67;;;15.40;99.90;;;;;;5054472;28;20568;-79
2021/05/10 04:48:10;;;;;;;2.77;2.23;;;15.60;99.90;;;;;;5054837;28;20508;-78
2021/05/10 04:50:36;;;;;;;4.20;2.40;;;15.60;99.90;;;;;;5055375;28;20445;-79
2021/05/10 04:53:03;;;;;;;2.63;2.20;;;16.10;99.90;;;;;;5054683;28;20588;-79
2021/05/10 04:55:29;;;;;;;2.20;2.00;;;15.80;99.90;;;;;;5055576;28;20445;-79
2021/05/10 04:57:56;;;;;;;4.33;3.00;;;16.00;99.90;;;;;;5053793;28;20489;-78
2021/05/10 05:00:22;;;;;;;4.37;2.40;;;15.80;99.90;;;;;;5054208;28;20445;-79
2021/05/10 05:02:48;;;;;;;2.77;2.33;;;16.00;99.90;;;;;;5055165;28;20437;-79
2021/05/10 05:05:15;;;;;;;9.70;4.33;;;16.10;99.90;;;;;;5055679;28;20477;-78
2021/05/10 05:07:42;;;;;;;1.80;1.70;;;16.30;99.90;;;;;;5055825;28;20485;-78
2021/05/10 05:10:10;;;;;;;4.80;2.60;;;16.20;99.90;;;;;;5058679;28;20539;-78
2021/05/10 05:12:37;;;;;;;8.43;2.70;;;16.30;99.90;;;;;;5058585;28;20488;-78
2021/05/10 05:15:05;;;;;;;3.57;2.20;;;16.30;99.90;;;;;;5062905;28;20952;-78
2021/05/10 05:17:31;;;;;;;2.80;2.30;;;16.50;99.90;;;;;;5065654;28;20469;-78
2021/05/10 05:19:57;;;;;;;2.73;2.30;;;16.40;99.90;;;;;;5060905;28;20793;-80
2021/05/10 05:22:24;;;;;;;2.80;2.60;;;16.60;99.90;;;;;;5059392;28;20492;-80
2021/05/10 05:24:50;;;;;;;4.00;2.33;;;16.50;99.90;;;;;;5058241;28;20446;-80
2021/05/10 05:27:16;;;;;;;5.77;2.70;;;16.50;99.90;;;;;;5057510;28;20446;-78
2021/05/10 05:29:42;;;;;;;4.07;2.40;;;16.50;99.90;;;;;;5057965;28;20479;-80
2021/05/10 05:32:09;;;;;;;6.93;3.50;;;;;;;;;;5057902;28;20470;-79
2021/05/10 05:34:35;;;;;;;2.83;2.63;;;16.60;99.90;;;;;;5058188;28;20457;-79
2021/05/10 05:37:01;;;;;;;4.90;2.70;;;16.80;99.90;;;;;;5058259;28;20454;-79
2021/05/10 05:39:28;;;;;;;4.70;2.20;;;16.80;99.90;;;;;;5057618;28;20928;-78
2021/05/10 05:41:54;;;;;;;3.33;2.50;;;16.90;99.90;;;;;;5056193;28;20454;-77
2021/05/10 05:44:20;;;;;;;3.30;3.00;;;16.90;99.90;;;;;;5057890;28;20448;-79
2021/05/10 05:46:49;;;;;;;4.37;2.00;;;17.20;99.90;;;;;;5057356;28;20454;-78
2021/05/10 05:49:16;;;;;;;4.37;2.73;;;17.20;99.90;;;;;;5056808;28;20459;-78
2021/05/10 05:51:45;;;;;;;2.87;2.20;;;17.30;99.90;;;;;;5056803;28;20477;-78
2021/05/10 05:54:12;;;;;;;3.23;2.30;;;17.30;99.90;;;;;;5057732;28;20485;-78
2021/05/10 05:56:42;;;;;;;3.40;2.17;;;17.30;99.90;;;;;;5057377;28;20474;-79
2021/05/10 05:59:09;;;;;;;4.43;2.60;;;17.40;99.90;;;;;;5058546;28;20533;-79
2021/05/10 06:01:35;;;;;;;4.33;2.47;;;17.40;99.90;;;;;;5060826;28;20950;-78
2021/05/10 06:04:01;;;;;;;2.67;2.47;;;17.50;99.90;;;;;;5058817;28;20452;-79
2021/05/10 06:06:28;;;;;;;4.93;2.63;;;17.50;99.90;;;;;;5057934;28;20452;-79
2021/05/10 06:08:55;;;;;;;4.43;2.50;;;17.50;99.90;;;;;;5055623;28;20474;-78
2021/05/10 06:11:21;;;;;;;2.67;2.47;;;;;;;;;;5055142;28;20999;-78
2021/05/10 06:13:48;;;;;;;3.90;2.20;;;17.60;99.90;;;;;;5055114;28;20480;-78
2021/05/10 06:16:14;;;;;;;4.43;2.30;;;17.60;99.90;;;;;;5055082;28;20454;-78
2021/05/10 06:18:42;;;;;;;4.60;2.93;;;17.70;99.90;;;;;;5054760;28;21054;-78
2021/05/10 06:21:08;;;;;;;2.30;2.10;;;17.80;99.90;;;;;;5056625;28;20533;-79
2021/05/10 06:23:36;;;;;;;4.40;2.37;;;17.90;99.90;;;;;;5056515;28;20486;-78
2021/05/10 06:26:02;;;;;;;3.50;2.77;;;18.00;99.90;;;;;;5056660;28;20451;-78
2021/05/10 06:28:28;;;;;;;2.80;2.20;;;18.00;99.90;;;;;;5057388;28;20819;-78
2021/05/10 06:30:55;;;;;;;3.50;2.30;;;18.10;99.90;;;;;;5060899;28;20461;-78
2021/05/10 06:33:23;;;;;;;3.10;2.80;;;18.20;99.90;;;;;;5066548;28;20486;-78
2021/05/10 06:35:49;;;;;;;4.50;3.00;;;18.10;99.90;;;;;;5073714;28;20503;-78
2021/05/10 06:38:16;;;;;;;3.90;2.53;;;18.30;99.90;;;;;;5065062;28;20472;-79
2021/05/10 06:40:42;;;;;;;5.53;3.67;;;18.20;99.90;;;;;;5058939;28;20455;-79
2021/05/10 06:43:08;;;;;;;2.70;2.27;;;18.20;99.90;;;;;;5057993;28;20440;-79
2021/05/10 06:45:35;;;;;;;4.33;2.70;;;18.40;99.90;;;;;;5059762;28;20466;-78
2021/05/10 06:48:01;;;;;;;3.70;2.90;;;18.40;99.90;;;;;;5059746;28;20503;-78
2021/05/10 06:50:28;;;;;;;3.40;3.10;;;18.60;99.90;;;;;;5064841;28;20818;-79
2021/05/10 06:52:54;;;;;;;3.50;2.67;;;18.40;99.90;;;;;;5059326;28;21079;-78
2021/05/10 06:55:20;;;;;;;3.43;2.40;;;18.40;99.90;;;;;;5059033;28;20447;-78
2021/05/10 06:57:46;;;;;;;2.57;2.37;;;18.60;99.90;;;;;;5057215;28;20629;-78
2021/05/10 07:00:13;;;;;;;2.93;2.63;;;18.70;99.90;;;;;;5055356;28;20460;-78
2021/05/10 07:02:40;;;;;;;3.00;2.30;;;;;;;;;;5056290;28;20444;-78
2021/05/10 07:05:08;;;;;;;12.17;3.10;;;18.60;99.90;;;;;;5055817;28;20445;-78
2021/05/10 07:07:35;;;;;;;4.47;2.57;;;18.80;99.90;;;;;;5055113;28;20544;-79
2021/05/10 07:10:01;;;;;;;5.03;2.40;;;18.90;99.90;;;;;;5054326;28;20947;-79
2021/05/10 07:12:28;;;;;;;2.57;2.37;;;18.90;99.90;;;;;;5055026;28;20490;-78
2021/05/10 07:14:54;;;;;;;3.67;2.03;;;18.90;99.90;;;;;;5056417;28;21078;-77
2021/05/10 07:17:20;;;;;;;2.70;2.03;;;19.10;99.90;;;;;;5057355;28;20469;-79
2021/05/10 07:19:46;;;;;;;5.23;2.10;;;19.10;99.90;;;;;;5054830;28;20450;-77
2021/05/10 07:22:13;;;;;;;3.27;2.73;;;19.30;99.90;;;;;;5055374;28;20446;-79
2021/05/10 07:24:39;;;;;;;4.07;3.23;;;19.20;99.90;;;;;;5059332;28;20438;-81
2021/05/10 07:27:05;;;;;;;2.90;2.10;;;19.40;99.90;;;;;;5058657;28;20476;-79
2021/05/10 07:29:34;;;;;;;4.90;2.87;;;19.40;99.90;;;;;;5058202;28;20446;-80
2021/05/10 07:32:00;;;;;;;3.40;2.40;;;19.70;99.90;;;;;;5060058;28;20460;-80
2021/05/10 07:34:27;;;;;;;3.10;2.80;;;19.70;99.90;;;;;;5059295;28;20482;-79
2021/05/10 07:36:53;;;;;;;7.53;2.63;;;19.80;99.90;;;;;;5061849;28;20454;-79
2021/05/10 07:39:20;;;;;;;2.50;2.30;;;19.60;99.90;;;;;;5061606;28;20449;-79
2021/05/10 07:41:46;;;;;;;5.80;3.40;;;19.70;99.90;;;;;;5058947;28;20529;-79
2021/05/10 07:44:13;;;;;;;2.60;2.40;;;19.90;99.90;;;;;;5061328;28;20441;-78
2021/05/10 07:46:39;;;;;;;4.80;2.50;;;19.70;99.90;;;;;;5065761;28;20528;-80
2021/05/10 07:49:05;;;;;;;3.90;2.70;;;19.70;99.90;;;;;;5058881;28;20611;-80
2021/05/10 07:51:31;;;;;;;3.03;2.30;;;19.70;99.90;;;;;;5056274;28;20441;-79
2021/05/10 07:53:57;;;;;;;2.50;2.30;;;19.80;99.90;;;;;;5054881;28;20509;-79
2021/05/10 07:56:24;;;;;;;2.43;2.23;;;19.80;99.90;;;;;;5057012;28;20787;-79
2021/05/10 07:58:54;;;;;;;2.20;2.00;;;19.90;99.90;;;;;;5041073;28;20516;-81
2021/05/10 08:01:20;;;;;;;2.60;2.40;;;20.00;99.90;;;;;;5062704;28;20449;-79
2021/05/10 08:03:47;;;;;;;3.87;3.20;;;20.00;99.90;;;;;;5060050;28;20457;-80
2021/05/10 08:06:14;;;;;;;4.07;3.67;;;20.00;99.90;;;;;;5060088;28;20453;-80
2021/05/10 08:08:40;;;;;;;3.10;2.80;;;20.20;99.90;;;;;;5058520;28;20905;-80
2021/05/10 08:11:06;;;;;;;6.80;2.40;;;20.20;99.90;;;;;;5057174;28;20472;-76
2021/05/10 08:13:33;;;;;;;2.67;2.47;;;20.20;99.90;;;;;;5057451;28;20531;-79
2021/05/10 08:15:59;;;;;;;5.90;2.80;;;20.30;99.90;;;;;;5056709;28;20949;-80
2021/05/10 08:19:19;;;;;;;3.10;2.40;;;20.40;99.90;;;;;;5058005;28;20987;-80
2021/05/10 08:21:45;;;;;;;4.70;4.20;;;20.50;99.90;;;;;;5060109;28;20945;-83
2021/05/10 08:24:11;;;;;;;3.30;3.00;;;20.60;99.90;;;;;;5065296;28;20441;-84
2021/05/10 08:26:37;;;;;;;4.27;2.20;;;20.60;99.90;;;;;;5063669;28;20860;-84
2021/05/10 08:29:04;;;;;;;4.10;3.70;;;20.90;99.90;;;;;;5064608;28;20469;-84
2021/05/10 08:31:31;;;;;;;11.80;5.53;;;;;;;;;;5065249;28;20452;-84
2021/05/10 08:33:57;;;;;;;6.20;3.80;;;20.90;99.90;;;;;;5063164;28;20485;-84
2021/05/10 08:36:23;;;;;;;5.00;2.93;;;20.90;99.90;;;;;;5057246;28;20445;-85
2021/05/10 08:38:51;;;;;;;6.03;2.57;;;21.00;99.90;;;;;;5056550;28;20488;-86
2021/05/10 08:41:17;;;;;;;5.20;2.37;;;;;;;;;;5057308;28;20468;-86
2021/05/10 08:43:43;;;;;;;3.03;2.50;;;21.10;99.90;;;;;;5059943;28;20450;-85
2021/05/10 08:46:10;;;;;;;8.00;3.80;;;21.10;99.90;;;;;;5061412;28;20523;-85
2021/05/10 08:48:36;;;;;;;3.73;3.07;;;21.20;99.90;;;;;;5061388;28;20468;-85
2021/05/10 08:51:03;;;;;;;6.70;2.93;;;21.30;99.90;;;;;;5061374;28;20861;-86
2021/05/10 08:53:37;;;;;;;6.40;3.27;;;21.30;99.90;;;;;;5060921;28;20481;-85
2021/05/10 08:56:03;;;;;;;14.90;3.80;;;;;;;;;;5061502;28;20449;-86
2021/05/10 08:58:35;;;;;;;2.57;2.37;;;21.50;99.90;;;;;;5061584;28;20481;-86
2021/05/10 09:01:01;;;;;;;2.20;2.00;;;24.60;99.90;;;;;;5062021;28;20430;-86
2021/05/10 09:03:32;;;;;;;2.97;2.70;;;21.60;99.90;;;;;;5060437;28;20453;-86
2021/05/10 09:06:01;;;;;;;4.77;3.43;;;21.60;99.90;;;;;;5061928;28;20426;-86
2021/05/10 09:08:27;;;;;;;3.60;2.40;;;21.80;99.90;;;;;;5068634;28;20470;-86
2021/05/10 09:11:09;;;;;;;7.40;2.83;;;21.80;99.90;;;;;;5079225;28;20449;-85
2021/05/10 09:13:37;;;;;;;2.50;2.30;;;21.90;99.90;;;;;;5080421;28;20470;-85
2021/05/10 09:16:05;;;;;;;3.27;2.20;;;21.90;99.90;;;;;;5079497;28;20433;-85
2021/05/10 09:18:32;;;;;;;7.70;3.00;;;22.00;99.90;;;;;;5078968;28;20449;-85
2021/05/10 09:21:14;;;;;;;3.03;2.83;;;22.10;99.90;;;;;;5077154;28;20572;-85
2021/05/10 09:23:40;;;;;;;4.43;3.40;;;22.20;99.90;;;;;;5069778;28;20870;-86
2021/05/10 09:26:07;;;;;;;3.10;2.90;;;22.20;99.90;;;;;;5068329;28;20445;-85
2021/05/10 09:28:38;;;;;;;5.53;3.20;;;22.10;99.90;;;;;;5065608;28;20995;-85
2021/05/10 09:31:07;;;;;;;3.33;3.03;;;22.20;99.90;;;;;;5072037;28;20448;-85
2021/05/10 09:33:34;;;;;;;6.60;3.07;;;22.30;99.90;;;;;;5068161;28;20474;-85
2021/05/10 09:36:05;;;;;;;4.50;2.80;;;22.30;99.90;;;;;;5071285;28;20468;-85
2021/05/10 09:38:33;;;;;;;4.10;2.57;;;22.40;99.90;;;;;;5066269;28;20472;-88
2021/05/10 09:41:00;;;;;;;4.10;3.00;;;21.90;99.90;;;;;;5061415;28;20454;-89
2021/05/10 09:43:29;;;;;;;4.87;3.27;;;22.50;99.90;;;;;;5069180;28;20443;-88
2021/05/10 09:45:57;;;;;;;3.00;2.70;;;22.70;99.90;;;;;;5066441;28;20442;-89
2021/05/10 09:48:29;;;;;;;6.00;3.30;;;22.60;99.90;;;;;;5067631;28;20462;-87
2021/05/10 09:51:01;;;;;;;3.00;2.80;;;23.00;99.90;;;;;;5071190;28;20434;-89
2021/05/10 09:53:39;;;;;;;3.83;2.63;;;23.00;99.90;;;;;;5064429;28;20504;-89
2021/05/10 09:56:07;;;;;;;8.63;3.70;;;23.10;99.90;;;;;;5070563;28;20451;-86
2021/05/10 09:58:42;;;;;;;4.17;2.83;;;22.80;99.90;;;;;;5071570;28;21007;-90
2021/05/10 10:01:09;;;;;;;2.80;2.60;;;23.00;99.90;;;;;;5065250;28;20435;-86
2021/05/10 10:03:38;;;;;;;4.03;2.63;;;22.90;99.90;;;;;;5075431;28;20442;-85
2021/05/10 10:06:07;;;;;;;3.23;3.00;;;23.10;99.90;;;;;;5072063;28;20462;-84
2021/05/10 10:08:34;;;;;;;2.80;2.40;;;23.20;99.90;;;;;;5070668;28;20562;-84
2021/05/10 10:11:00;;;;;;;2.67;2.37;;;23.20;99.90;;;;;;5067752;28;20481;-86
2021/05/10 10:13:28;;;;;;;6.60;2.70;;;23.20;99.90;;;;;;5069247;28;20577;-80
2021/05/10 10:15:57;;;;;;;4.67;3.40;;;;;;;;;;5067327;28;20444;-84
2021/05/10 10:18:24;;;;;;;9.90;4.80;;;23.40;99.90;;;;;;5066743;28;20467;-84
2021/05/10 10:20:51;;;;;;;39.57;22.17;;;23.50;99.90;;;;;;5068113;28;20452;-84
2021/05/10 10:23:21;;;;;;;155.90;79.87;;;23.70;99.90;;;;;;5075487;28;20455;-85
2021/05/10 10:25:48;;;;;;;39.03;18.07;;;23.70;99.90;;;;;;5071039;28;20439;-81
2021/05/10 10:28:17;;;;;;;77.07;40.23;;;23.80;99.90;;;;;;5068972;28;20479;-81
2021/05/10 10:30:48;;;;;;;55.40;30.37;;;23.90;99.90;;;;;;5072922;28;20453;-81
2021/05/10 10:33:21;;;;;;;44.73;25.20;;;23.90;99.90;;;;;;5077089;28;20497;-80
2021/05/10 10:35:48;;;;;;;56.97;32.97;;;23.90;99.90;;;;;;5067455;28;20426;-82
2021/05/10 10:38:24;;;;;;;6.17;5.03;;;23.90;99.90;;;;;;5061460;28;20499;-80
2021/05/10 10:41:18;;;;;;;16.20;10.17;;;24.00;99.90;;;;;;5061939;28;20432;-82
2021/05/10 10:43:44;;;;;;;59.10;29.63;;;24.10;99.90;;;;;;5067288;28;20431;-80
2021/05/10 10:46:22;;;;;;;41.70;22.23;;;24.10;99.90;;;;;;5070580;28;20441;-81
2021/05/10 10:48:51;;;;;;;71.60;38.23;;;24.20;99.90;;;;;;5067327;28;20508;-81
2021/05/10 10:51:18;;;;;;;12.43;9.00;;;24.30;99.90;;;;;;5065026;28;20553;-82
2021/05/10 10:53:46;;;;;;;24.50;13.87;;;24.20;99.90;;;;;;5063690;28;20858;-82
2021/05/10 10:56:13;;;;;;;11.73;7.70;;;24.40;99.90;;;;;;5067731;28;20449;-82
2021/05/10 10:58:41;;;;;;;32.20;17.77;;;24.50;99.90;;;;;;5071563;28;20477;-82
2021/05/10 11:01:19;;;;;;;5.93;4.40;;;24.70;99.90;;;;;;5070477;28;20479;-81
2021/05/10 11:03:46;;;;;;;26.17;17.27;;;24.70;99.90;;;;;;5072130;28;20426;-82
2021/05/10 11:06:13;;;;;;;60.43;33.23;;;24.70;99.90;;;;;;5068739;28;20442;-83
2021/05/10 11:08:47;;;;;;;5.63;4.70;;;24.70;99.90;;;;;;5070435;28;20476;-83
2021/05/10 11:11:41;;;;;;;22.07;13.63;;;24.90;99.90;;;;;;5072146;28;20479;-82
2021/05/10 11:14:12;;;;;;;7.23;4.50;;;25.20;99.90;;;;;;5072664;28;20469;-82
2021/05/10 11:16:47;;;;;;;2.63;2.43;;;24.80;99.90;;;;;;5072458;28;20434;-84
2021/05/10 11:19:30;;;;;;;40.83;23.10;;;24.90;99.90;;;;;;5069310;28;20445;-83
2021/05/10 11:21:56;;;;;;;6.40;4.67;;;25.00;99.90;;;;;;5068202;28;20475;-84
2021/05/10 11:24:28;;;;;;;3.43;3.20;;;25.00;99.90;;;;;;5066107;28;20440;-83
2021/05/10 11:26:58;;;;;;;10.40;6.80;;;25.00;99.90;;;;;;5066363;28;20446;-83
2021/05/10 11:29:50;;;;;;;18.40;12.03;;;25.20;99.90;;;;;;5066693;28;20441;-83
2021/05/10 11:32:31;;;;;;;15.80;9.97;;;25.30;99.90;;;;;;5067392;28;20436;-84
2021/05/10 11:35:21;;;;;;;39.03;21.50;;;25.50;99.90;;;;;;5068853;28;20497;-82
2021/05/10 11:37:59;;;;;;;8.13;5.57;;;25.50;99.90;;;;;;5069805;28;20496;-83
2021/05/10 11:40:25;;;;;;;6.37;3.97;;;25.20;99.90;;;;;;5074150;28;20449;-82
2021/05/10 11:42:52;;;;;;;7.50;5.10;;;25.60;99.90;;;;;;5076864;28;20438;-82
2021/05/10 11:45:19;;;;;;;10.77;6.93;;;25.80;99.90;;;;;;5077320;28;20450;-82
2021/05/10 11:47:47;;;;;;;7.03;4.30;;;25.90;99.90;;;;;;5075856;28;20477;-82
2021/05/10 11:50:13;;;;;;;6.13;4.40;;;25.80;99.90;;;;;;5075670;28;20438;-83
2021/05/10 11:52:39;;;;;;;18.80;13.47;;;26.00;99.90;;;;;;5075145;28;20446;-82
2021/05/10 11:55:06;;;;;;;48.33;22.57;;;26.40;99.90;;;;;;5074948;28;20429;-83
2021/05/10 11:57:35;;;;;;;10.63;7.30;;;26.00;99.90;;;;;;5074492;28;20499;-82
2021/05/10 12:00:12;;;;;;;17.07;11.90;;;25.50;99.90;;;;;;5060940;28;20449;-83
2021/05/10 12:02:40;;;;;;;19.30;13.37;;;26.10;99.90;;;;;;5060558;28;20429;-84
2021/05/10 12:05:09;;;;;;;11.90;7.60;;;26.50;99.90;;;;;;5061502;28;20445;-84
2021/05/10 12:07:35;;;;;;;10.73;7.67;;;25.90;99.90;;;;;;5066898;28;20480;-83
2021/05/10 12:10:03;;;;;;;13.00;9.60;;;25.90;99.90;;;;;;5067490;28;20451;-84
2021/05/10 12:12:34;;;;;;;5.70;4.50;;;26.10;99.90;;;;;;5062527;28;20539;-82
2021/05/10 12:15:16;;;;;;;11.00;7.83;;;26.10;99.90;;;;;;5067077;28;20465;-82
2021/05/10 12:17:44;;;;;;;12.53;6.30;;;26.30;99.90;;;;;;5070632;28;20461;-83
2021/05/10 12:20:15;;;;;;;12.70;9.37;;;26.40;99.90;;;;;;5073107;28;20467;-83
2021/05/10 12:22:44;;;;;;;4.90;4.20;;;26.40;99.90;;;;;;5072122;28;20503;-83
2021/05/10 12:25:28;;;;;;;10.97;7.00;;;26.40;99.90;;;;;;5075410;28;20835;-84
2021/05/10 12:28:02;;;;;;;9.97;6.57;;;25.40;99.90;;;;;;5072310;28;20465;-84
2021/05/10 12:30:32;;;;;;;10.30;8.00;;;25.90;99.90;;;;;;5067940;28;20426;-84
2021/05/10 12:33:00;;;;;;;15.10;11.83;;;26.20;99.90;;;;;;5074182;28;20475;-84
2021/05/10 12:35:28;;;;;;;11.97;9.23;;;26.40;99.90;;;;;;5076779;28;20445;-84
2021/05/10 12:37:56;;;;;;;6.30;5.17;;;26.60;99.60;;;;;;5075089;28;20473;-84
2021/05/10 12:40:24;;;;;;;16.33;11.67;;;26.60;99.90;;;;;;5076649;28;20441;-83
2021/05/10 12:43:10;;;;;;;12.30;8.40;;;26.40;99.90;;;;;;5073440;28;20446;-82
2021/05/10 12:45:39;;;;;;;6.70;6.07;;;26.80;99.90;;;;;;5076037;28;20429;-84
2021/05/10 12:48:13;;;;;;;6.80;5.27;;;26.60;99.80;;;;;;5076986;28;20461;-83
2021/05/10 12:50:41;;;;;;;6.93;5.50;;;26.90;99.90;;;;;;5079693;28;20452;-83
2021/05/10 12:53:08;;;;;;;6.10;3.60;;;26.30;99.80;;;;;;5080107;28;20482;-82
2021/05/10 12:55:35;;;;;;;5.33;4.43;;;26.90;99.00;;;;;;5078841;28;20445;-84
2021/05/10 12:58:17;;;;;;;6.27;4.47;;;26.80;99.30;;;;;;5078998;28;20488;-83
2021/05/10 13:00:44;;;;;;;8.20;6.37;;;26.50;98.80;;;;;;5078075;28;20471;-83